sensor_id;sensor_type;location;lat;lon;timestamp;temperature;humidity
35111;DHT22;21290;50.158;8.658;2024-03-22T00:00:21;9.60;99.90
35111;DHT22;21290;50.158;8.658;2024-03-22T00:02:47;9.50;99.90
35111;DHT22;21290;50.158;8.658;2024-03-22T00:05:13;9.50;99.90
35111;DHT22;21290;50.158;8.658;2024-03-22T00:07:40;9.40;99.90
35111;DHT22;21290;50.158;8.658;2024-03-22T00:10:06;9.30;99.90
35111;DHT22;21290;50.158;8.658;2024-03-22T00:12:33;9.30;99.90
35111;DHT22;21290;50.158;8.658;2024-03-22T00:14:59;9.20;99.90
35111;DHT22;21290;50.158;8.658;2024-03-22T00:17:25;9.20;99.90
35111;DHT22;21290;50.158;8.658;2024-03-22T00:19:51;9.20;99.90
35111;DHT22;21290;50.158;8.658;2024-03-22T00:22:17;9.20;99.90
35111;DHT22;21290;50.158;8.658;2024-03-22T00:24:43;9.10;99.90
35111;DHT22;21290;50.158;8.658;2024-03-22T00:27:08;9.10;99.90
35111;DHT22;21290;50.158;8.658;2024-03-22T00:29:37;9.00;99.90
35111;DHT22;21290;50.158;8.658;2024-03-22T00:32:03;8.90;99.90
35111;DHT22;21290;50.158;8.658;2024-03-22T00:34:29;8.80;99.90
35111;DHT22;21290;50.158;8.658;2024-03-22T00:36:55;8.80;99.90
35111;DHT22;21290;50.158;8.658;2024-03-22T00:39:21;8.80;99.90
35111;DHT22;21290;50.158;8.658;2024-03-22T00:41:47;8.70;99.90
35111;DHT22;21290;50.158;8.658;2024-03-22T00:44:13;8.60;99.90
35111;DHT22;21290;50.158;8.658;2024-03-22T00:46:39;8.60;99.90
35111;DHT22;21290;50.158;8.658;2024-03-22T00:49:05;8.50;99.90
35111;DHT22;21290;50.158;8.658;2024-03-22T00:51:32;8.50;99.90
35111;DHT22;21290;50.158;8.658;2024-03-22T00:53:58;8.50;99.90
35111;DHT22;21290;50.158;8.658;2024-03-22T00:56:24;8.40;99.90
35111;DHT22;21290;50.158;8.658;2024-03-22T00:58:50;8.40;99.90
35111;DHT22;21290;50.158;8.658;2024-03-22T01:01:16;8.40;99.90
35111;DHT22;21290;50.158;8.658;2024-03-22T01:03:42;8.40;99.90
35111;DHT22;21290;50.158;8.658;2024-03-22T01:06:08;8.30;99.90
35111;DHT22;21290;50.158;8.658;2024-03-22T01:08:34;8.30;99.90
35111;DHT22;21290;50.158;8.658;2024-03-22T01:10:59;8.30;99.90
35111;DHT22;21290;50.158;8.658;2024-03-22T01:13:25;8.30;99.90
35111;DHT22;21290;50.158;8.658;2024-03-22T01:15:51;8.30;99.90
35111;DHT22;21290;50.158;8.658;2024-03-22T01:18:18;8.30;99.90
35111;DHT22;21290;50.158;8.658;2024-03-22T01:20:44;8.30;99.90
35111;DHT22;21290;50.158;8.658;2024-03-22T01:23:10;8.30;99.90
35111;DHT22;21290;50.158;8.658;2024-03-22T01:25:36;8.20;99.90
35111;DHT22;21290;50.158;8.658;2024-03-22T01:28:02;8.20;99.90
35111;DHT22;21290;50.158;8.658;2024-03-22T01:30:29;8.20;99.90
35111;DHT22;21290;50.158;8.658;2024-03-22T01:32:55;8.20;99.90
35111;DHT22;21290;50.158;8.658;2024-03-22T01:35:23;8.20;99.90
35111;DHT22;21290;50.158;8.658;2024-03-22T01:37:48;8.20;99.90
35111;DHT22;21290;50.158;8.658;2024-03-22T01:40:15;8.10;99.90
35111;DHT22;21290;50.158;8.658;2024-03-22T01:42:40;8.10;99.90
35111;DHT22;21290;50.158;8.658;2024-03-22T01:45:06;8.10;99.90
35111;DHT22;21290;50.158;8.658;2024-03-22T01:47:33;8.00;99.90
35111;DHT22;21290;50.158;8.658;2024-03-22T01:49:59;7.90;99.90
35111;DHT22;21290;50.158;8.658;2024-03-22T01:52:27;7.90;99.90
35111;DHT22;21290;50.158;8.658;2024-03-22T01:54:53;7.80;99.90
35111;DHT22;21290;50.158;8.658;2024-03-22T01:57:19;7.70;99.90
35111;DHT22;21290;50.158;8.658;2024-03-22T01:59:46;7.70;99.90
35111;DHT22;21290;50.158;8.658;2024-03-22T02:02:14;7.70;99.90
35111;DHT22;21290;50.158;8.658;2024-03-22T02:04:41;7.70;99.90
35111;DHT22;21290;50.158;8.658;2024-03-22T02:07:07;7.60;99.90
35111;DHT22;21290;50.158;8.658;2024-03-22T02:09:33;7.60;99.90
35111;DHT22;21290;50.158;8.658;2024-03-22T02:11:59;7.60;99.90
35111;DHT22;21290;50.158;8.658;2024-03-22T02:14:25;7.50;99.90
35111;DHT22;21290;50.158;8.658;2024-03-22T02:16:51;7.40;99.90
35111;DHT22;21290;50.158;8.658;2024-03-22T02:19:17;7.40;99.90
35111;DHT22;21290;50.158;8.658;2024-03-22T02:21:44;7.40;99.90
35111;DHT22;21290;50.158;8.658;2024-03-22T02:24:10;7.40;99.90
35111;DHT22;21290;50.158;8.658;2024-03-22T02:26:36;7.50;99.90
35111;DHT22;21290;50.158;8.658;2024-03-22T02:29:02;7.60;99.90
35111;DHT22;21290;50.158;8.658;2024-03-22T02:31:28;7.70;99.90
35111;DHT22;21290;50.158;8.658;2024-03-22T02:33:54;7.70;99.90
35111;DHT22;21290;50.158;8.658;2024-03-22T02:36:20;7.80;99.90
35111;DHT22;21290;50.158;8.658;2024-03-22T02:38:46;7.70;99.90
35111;DHT22;21290;50.158;8.658;2024-03-22T02:41:13;7.60;99.90
35111;DHT22;21290;50.158;8.658;2024-03-22T02:43:38;7.60;99.90
35111;DHT22;21290;50.158;8.658;2024-03-22T02:46:04;7.50;99.90
35111;DHT22;21290;50.158;8.658;2024-03-22T02:48:30;7.40;99.90
35111;DHT22;21290;50.158;8.658;2024-03-22T02:50:57;7.30;99.90
35111;DHT22;21290;50.158;8.658;2024-03-22T02:53:23;7.20;99.90
35111;DHT22;21290;50.158;8.658;2024-03-22T02:55:50;7.20;99.90
35111;DHT22;21290;50.158;8.658;2024-03-22T02:58:20;7.10;99.90
35111;DHT22;21290;50.158;8.658;2024-03-22T03:00:45;7.10;99.90
35111;DHT22;21290;50.158;8.658;2024-03-22T03:03:11;7.00;99.90
35111;DHT22;21290;50.158;8.658;2024-03-22T03:05:37;7.00;99.90
35111;DHT22;21290;50.158;8.658;2024-03-22T03:08:04;6.90;99.90
35111;DHT22;21290;50.158;8.658;2024-03-22T03:10:29;6.90;99.90
35111;DHT22;21290;50.158;8.658;2024-03-22T03:12:57;6.80;99.90
35111;DHT22;21290;50.158;8.658;2024-03-22T03:15:23;6.80;99.90
35111;DHT22;21290;50.158;8.658;2024-03-22T03:17:49;6.80;99.90
35111;DHT22;21290;50.158;8.658;2024-03-22T03:20:15;6.80;99.90
35111;DHT22;21290;50.158;8.658;2024-03-22T03:22:42;6.70;99.90
35111;DHT22;21290;50.158;8.658;2024-03-22T03:25:09;6.70;99.90
35111;DHT22;21290;50.158;8.658;2024-03-22T03:27:35;6.70;99.90
35111;DHT22;21290;50.158;8.658;2024-03-22T03:30:01;6.60;99.90
35111;DHT22;21290;50.158;8.658;2024-03-22T03:32:28;6.70;99.90
35111;DHT22;21290;50.158;8.658;2024-03-22T03:34:54;6.60;99.90
35111;DHT22;21290;50.158;8.658;2024-03-22T03:37:20;6.60;99.90
35111;DHT22;21290;50.158;8.658;2024-03-22T03:39:45;6.60;99.90
35111;DHT22;21290;50.158;8.658;2024-03-22T03:42:13;6.60;99.90
35111;DHT22;21290;50.158;8.658;2024-03-22T03:44:39;6.60;99.90
35111;DHT22;21290;50.158;8.658;2024-03-22T03:47:05;6.60;99.90
35111;DHT22;21290;50.158;8.658;2024-03-22T03:49:30;6.60;99.90
35111;DHT22;21290;50.158;8.658;2024-03-22T03:51:56;6.60;99.90
35111;DHT22;21290;50.158;8.658;2024-03-22T03:54:23;6.60;99.90
35111;DHT22;21290;50.158;8.658;2024-03-22T03:56:49;6.60;99.90
35111;DHT22;21290;50.158;8.658;2024-03-22T03:59:15;6.60;99.90
35111;DHT22;21290;50.158;8.658;2024-03-22T04:01:41;6.60;99.90
35111;DHT22;21290;50.158;8.658;2024-03-22T04:04:07;6.60;99.90
35111;DHT22;21290;50.158;8.658;2024-03-22T04:06:33;6.60;99.90
35111;DHT22;21290;50.158;8.658;2024-03-22T04:09:00;6.70;99.90
35111;DHT22;21290;50.158;8.658;2024-03-22T04:11:26;6.60;99.90
35111;DHT22;21290;50.158;8.658;2024-03-22T04:13:52;6.70;99.90
35111;DHT22;21290;50.158;8.658;2024-03-22T04:16:17;6.60;99.90
35111;DHT22;21290;50.158;8.658;2024-03-22T04:18:44;6.70;99.90
35111;DHT22;21290;50.158;8.658;2024-03-22T04:21:10;6.60;99.90
35111;DHT22;21290;50.158;8.658;2024-03-22T04:23:36;6.60;99.90
35111;DHT22;21290;50.158;8.658;2024-03-22T04:26:02;6.70;99.90
35111;DHT22;21290;50.158;8.658;2024-03-22T04:28:29;6.70;99.90
35111;DHT22;21290;50.158;8.658;2024-03-22T04:33:29;6.80;99.90
35111;DHT22;21290;50.158;8.658;2024-03-22T04:35:56;6.80;99.90
35111;DHT22;21290;50.158;8.658;2024-03-22T04:38:23;6.80;99.90
35111;DHT22;21290;50.158;8.658;2024-03-22T04:40:49;6.90;99.90
35111;DHT22;21290;50.158;8.658;2024-03-22T04:43:15;6.90;99.90
35111;DHT22;21290;50.158;8.658;2024-03-22T04:45:47;6.90;99.90
35111;DHT22;21290;50.158;8.658;2024-03-22T04:48:18;7.00;99.90
35111;DHT22;21290;50.158;8.658;2024-03-22T04:50:47;6.90;99.90
35111;DHT22;21290;50.158;8.658;2024-03-22T04:53:19;6.90;99.90
35111;DHT22;21290;50.158;8.658;2024-03-22T04:55:47;7.00;99.90
35111;DHT22;21290;50.158;8.658;2024-03-22T04:58:14;7.00;99.90
35111;DHT22;21290;50.158;8.658;2024-03-22T05:00:40;7.00;99.90
35111;DHT22;21290;50.158;8.658;2024-03-22T05:03:06;7.00;99.90
35111;DHT22;21290;50.158;8.658;2024-03-22T05:05:34;7.10;99.90
35111;DHT22;21290;50.158;8.658;2024-03-22T05:08:00;7.10;99.90
35111;DHT22;21290;50.158;8.658;2024-03-22T05:10:26;7.10;99.90
35111;DHT22;21290;50.158;8.658;2024-03-22T05:12:52;7.10;99.90
35111;DHT22;21290;50.158;8.658;2024-03-22T05:15:18;7.10;99.90
35111;DHT22;21290;50.158;8.658;2024-03-22T05:17:44;7.20;99.90
35111;DHT22;21290;50.158;8.658;2024-03-22T05:20:11;7.30;99.90
35111;DHT22;21290;50.158;8.658;2024-03-22T05:22:37;7.30;99.90
35111;DHT22;21290;50.158;8.658;2024-03-22T05:25:04;7.40;99.90
35111;DHT22;21290;50.158;8.658;2024-03-22T05:27:33;7.50;99.90
35111;DHT22;21290;50.158;8.658;2024-03-22T05:29:59;7.60;99.90
35111;DHT22;21290;50.158;8.658;2024-03-22T05:32:25;7.70;99.90
35111;DHT22;21290;50.158;8.658;2024-03-22T05:34:52;7.80;99.90
35111;DHT22;21290;50.158;8.658;2024-03-22T05:37:18;7.80;99.90
35111;DHT22;21290;50.158;8.658;2024-03-22T05:39:44;8.00;99.90
35111;DHT22;21290;50.158;8.658;2024-03-22T05:42:10;8.00;99.90
35111;DHT22;21290;50.158;8.658;2024-03-22T05:44:36;8.10;99.90
35111;DHT22;21290;50.158;8.658;2024-03-22T05:47:02;8.20;99.90
35111;DHT22;21290;50.158;8.658;2024-03-22T05:49:28;8.20;99.90
35111;DHT22;21290;50.158;8.658;2024-03-22T05:51:53;8.20;99.90
35111;DHT22;21290;50.158;8.658;2024-03-22T05:54:19;8.30;99.90
35111;DHT22;21290;50.158;8.658;2024-03-22T05:56:45;8.30;99.90
35111;DHT22;21290;50.158;8.658;2024-03-22T05:59:11;8.30;99.90
35111;DHT22;21290;50.158;8.658;2024-03-22T06:01:37;8.30;99.90
35111;DHT22;21290;50.158;8.658;2024-03-22T06:04:06;8.40;99.90
35111;DHT22;21290;50.158;8.658;2024-03-22T06:06:34;8.40;99.90
35111;DHT22;21290;50.158;8.658;2024-03-22T06:09:00;8.40;99.90
35111;DHT22;21290;50.158;8.658;2024-03-22T06:11:32;8.60;99.90
35111;DHT22;21290;50.158;8.658;2024-03-22T06:13:58;8.70;99.90
35111;DHT22;21290;50.158;8.658;2024-03-22T06:16:23;8.90;99.90
35111;DHT22;21290;50.158;8.658;2024-03-22T06:18:49;9.00;99.90
35111;DHT22;21290;50.158;8.658;2024-03-22T06:21:15;9.10;99.90
35111;DHT22;21290;50.158;8.658;2024-03-22T06:23:41;9.20;99.90
35111;DHT22;21290;50.158;8.658;2024-03-22T06:26:09;9.30;99.90
35111;DHT22;21290;50.158;8.658;2024-03-22T06:28:35;9.40;99.90
35111;DHT22;21290;50.158;8.658;2024-03-22T06:31:01;9.40;99.90
35111;DHT22;21290;50.158;8.658;2024-03-22T06:33:28;9.40;99.90
35111;DHT22;21290;50.158;8.658;2024-03-22T06:35:55;9.50;99.90
35111;DHT22;21290;50.158;8.658;2024-03-22T06:38:20;9.50;99.90
35111;DHT22;21290;50.158;8.658;2024-03-22T06:40:46;9.50;99.90
35111;DHT22;21290;50.158;8.658;2024-03-22T06:43:12;9.50;99.90
35111;DHT22;21290;50.158;8.658;2024-03-22T06:45:38;9.40;99.90
35111;DHT22;21290;50.158;8.658;2024-03-22T06:48:04;9.40;99.90
35111;DHT22;21290;50.158;8.658;2024-03-22T06:50:30;9.50;99.90
35111;DHT22;21290;50.158;8.658;2024-03-22T06:52:56;9.50;99.90
35111;DHT22;21290;50.158;8.658;2024-03-22T06:55:22;9.60;99.90
35111;DHT22;21290;50.158;8.658;2024-03-22T06:57:49;9.60;99.90
35111;DHT22;21290;50.158;8.658;2024-03-22T07:00:16;9.60;99.90
35111;DHT22;21290;50.158;8.658;2024-03-22T07:02:42;9.60;99.90
35111;DHT22;21290;50.158;8.658;2024-03-22T07:05:08;9.60;99.90
35111;DHT22;21290;50.158;8.658;2024-03-22T07:07:35;9.60;99.90
35111;DHT22;21290;50.158;8.658;2024-03-22T07:10:05;9.60;99.90
35111;DHT22;21290;50.158;8.658;2024-03-22T07:12:34;9.60;99.90
35111;DHT22;21290;50.158;8.658;2024-03-22T07:15:00;9.60;99.90
35111;DHT22;21290;50.158;8.658;2024-03-22T07:17:27;9.70;99.90
35111;DHT22;21290;50.158;8.658;2024-03-22T07:19:54;9.70;99.90
35111;DHT22;21290;50.158;8.658;2024-03-22T07:22:20;9.60;99.90
35111;DHT22;21290;50.158;8.658;2024-03-22T07:24:46;9.60;99.90
35111;DHT22;21290;50.158;8.658;2024-03-22T07:27:16;9.70;99.90
35111;DHT22;21290;50.158;8.658;2024-03-22T07:29:44;9.70;99.90
35111;DHT22;21290;50.158;8.658;2024-03-22T07:32:10;9.70;99.90
35111;DHT22;21290;50.158;8.658;2024-03-22T07:34:36;9.70;99.90
35111;DHT22;21290;50.158;8.658;2024-03-22T07:37:02;9.70;99.90
35111;DHT22;21290;50.158;8.658;2024-03-22T07:39:29;9.70;99.90
35111;DHT22;21290;50.158;8.658;2024-03-22T07:41:55;9.70;99.90
35111;DHT22;21290;50.158;8.658;2024-03-22T07:44:21;9.70;99.90
35111;DHT22;21290;50.158;8.658;2024-03-22T07:46:50;9.80;99.90
35111;DHT22;21290;50.158;8.658;2024-03-22T07:49:16;9.90;99.90
35111;DHT22;21290;50.158;8.658;2024-03-22T07:51:42;10.00;99.90
35111;DHT22;21290;50.158;8.658;2024-03-22T07:54:08;10.00;99.90
35111;DHT22;21290;50.158;8.658;2024-03-22T07:56:34;10.10;99.90
35111;DHT22;21290;50.158;8.658;2024-03-22T07:59:00;10.20;99.90
35111;DHT22;21290;50.158;8.658;2024-03-22T08:01:26;10.10;99.90
35111;DHT22;21290;50.158;8.658;2024-03-22T08:03:54;10.20;99.90
35111;DHT22;21290;50.158;8.658;2024-03-22T08:06:22;10.20;99.90
35111;DHT22;21290;50.158;8.658;2024-03-22T08:08:48;10.30;99.90
35111;DHT22;21290;50.158;8.658;2024-03-22T08:11:20;10.30;99.90
35111;DHT22;21290;50.158;8.658;2024-03-22T08:13:46;10.40;99.90
35111;DHT22;21290;50.158;8.658;2024-03-22T08:16:12;10.40;99.90
35111;DHT22;21290;50.158;8.658;2024-03-22T08:18:38;10.40;99.90
35111;DHT22;21290;50.158;8.658;2024-03-22T08:21:04;10.40;99.90
35111;DHT22;21290;50.158;8.658;2024-03-22T08:23:32;10.50;99.90
35111;DHT22;21290;50.158;8.658;2024-03-22T08:26:02;10.60;99.90
35111;DHT22;21290;50.158;8.658;2024-03-22T08:28:28;10.60;99.90
35111;DHT22;21290;50.158;8.658;2024-03-22T08:30:54;10.70;99.90
35111;DHT22;21290;50.158;8.658;2024-03-22T08:33:19;10.80;99.90
35111;DHT22;21290;50.158;8.658;2024-03-22T08:35:45;10.90;99.90
35111;DHT22;21290;50.158;8.658;2024-03-22T08:38:11;11.00;99.90
35111;DHT22;21290;50.158;8.658;2024-03-22T08:40:40;11.10;99.90
35111;DHT22;21290;50.158;8.658;2024-03-22T08:43:06;11.20;99.90
35111;DHT22;21290;50.158;8.658;2024-03-22T08:45:36;11.40;99.90
35111;DHT22;21290;50.158;8.658;2024-03-22T08:48:02;11.50;99.90
35111;DHT22;21290;50.158;8.658;2024-03-22T08:50:28;11.50;99.90
35111;DHT22;21290;50.158;8.658;2024-03-22T08:52:59;11.60;99.90
35111;DHT22;21290;50.158;8.658;2024-03-22T08:55:29;11.80;99.90
35111;DHT22;21290;50.158;8.658;2024-03-22T08:58:04;11.90;99.90
35111;DHT22;21290;50.158;8.658;2024-03-22T09:00:30;12.00;99.90
35111;DHT22;21290;50.158;8.658;2024-03-22T09:02:56;12.20;99.90
35111;DHT22;21290;50.158;8.658;2024-03-22T09:05:23;12.40;99.90
35111;DHT22;21290;50.158;8.658;2024-03-22T09:07:52;12.70;99.90
35111;DHT22;21290;50.158;8.658;2024-03-22T09:10:33;12.90;99.90
35111;DHT22;21290;50.158;8.658;2024-03-22T09:12:59;13.00;99.90
35111;DHT22;21290;50.158;8.658;2024-03-22T09:15:25;13.20;99.90
35111;DHT22;21290;50.158;8.658;2024-03-22T09:17:54;13.50;99.90
35111;DHT22;21290;50.158;8.658;2024-03-22T09:20:20;13.70;99.90
35111;DHT22;21290;50.158;8.658;2024-03-22T09:22:45;14.00;99.90
35111;DHT22;21290;50.158;8.658;2024-03-22T09:25:11;14.20;99.90
35111;DHT22;21290;50.158;8.658;2024-03-22T09:27:37;14.40;99.90
35111;DHT22;21290;50.158;8.658;2024-03-22T09:30:04;14.50;99.90
35111;DHT22;21290;50.158;8.658;2024-03-22T09:32:39;14.50;99.90
35111;DHT22;21290;50.158;8.658;2024-03-22T09:35:06;14.50;99.90
35111;DHT22;21290;50.158;8.658;2024-03-22T09:37:32;14.50;99.90
35111;DHT22;21290;50.158;8.658;2024-03-22T09:40:04;14.60;99.90
35111;DHT22;21290;50.158;8.658;2024-03-22T09:42:33;14.70;99.90
35111;DHT22;21290;50.158;8.658;2024-03-22T09:45:05;14.90;99.90
35111;DHT22;21290;50.158;8.658;2024-03-22T09:47:33;15.10;99.90
35111;DHT22;21290;50.158;8.658;2024-03-22T09:50:00;15.30;99.90
35111;DHT22;21290;50.158;8.658;2024-03-22T09:52:27;15.50;99.90
35111;DHT22;21290;50.158;8.658;2024-03-22T09:54:55;15.40;99.90
35111;DHT22;21290;50.158;8.658;2024-03-22T09:57:22;15.70;99.90
35111;DHT22;21290;50.158;8.658;2024-03-22T09:59:49;15.80;99.90
35111;DHT22;21290;50.158;8.658;2024-03-22T10:02:16;16.10;99.90
35111;DHT22;21290;50.158;8.658;2024-03-22T10:04:43;16.40;99.90
35111;DHT22;21290;50.158;8.658;2024-03-22T10:07:09;16.90;99.90
35111;DHT22;21290;50.158;8.658;2024-03-22T10:09:40;17.60;99.90
35111;DHT22;21290;50.158;8.658;2024-03-22T10:12:13;18.80;99.90
35111;DHT22;21290;50.158;8.658;2024-03-22T10:14:49;19.80;98.30
35111;DHT22;21290;50.158;8.658;2024-03-22T10:17:15;19.70;97.50
35111;DHT22;21290;50.158;8.658;2024-03-22T10:19:41;20.00;97.70
35111;DHT22;21290;50.158;8.658;2024-03-22T10:22:07;20.00;97.30
35111;DHT22;21290;50.158;8.658;2024-03-22T10:24:33;19.80;96.80
35111;DHT22;21290;50.158;8.658;2024-03-22T10:27:02;19.50;97.50
35111;DHT22;21290;50.158;8.658;2024-03-22T10:29:37;19.70;97.00
35111;DHT22;21290;50.158;8.658;2024-03-22T10:32:09;19.90;96.90
35111;DHT22;21290;50.158;8.658;2024-03-22T10:34:35;19.60;97.00
35111;DHT22;21290;50.158;8.658;2024-03-22T10:37:01;19.50;97.00
35111;DHT22;21290;50.158;8.658;2024-03-22T10:39:28;19.30;97.30
35111;DHT22;21290;50.158;8.658;2024-03-22T10:42:00;19.80;96.70
35111;DHT22;21290;50.158;8.658;2024-03-22T10:44:32;19.90;96.20
35111;DHT22;21290;50.158;8.658;2024-03-22T10:47:01;19.80;96.60
35111;DHT22;21290;50.158;8.658;2024-03-22T10:49:42;20.20;96.90
35111;DHT22;21290;50.158;8.658;2024-03-22T10:52:26;20.60;95.20
35111;DHT22;21290;50.158;8.658;2024-03-22T10:54:58;20.30;95.00
35111;DHT22;21290;50.158;8.658;2024-03-22T10:57:24;19.50;96.10
35111;DHT22;21290;50.158;8.658;2024-03-22T10:59:54;19.10;97.00
35111;DHT22;21290;50.158;8.658;2024-03-22T11:02:24;19.00;97.30
35111;DHT22;21290;50.158;8.658;2024-03-22T11:04:59;19.80;96.90
35111;DHT22;21290;50.158;8.658;2024-03-22T11:07:31;21.00;95.80
35111;DHT22;21290;50.158;8.658;2024-03-22T11:09:57;22.20;94.50
35111;DHT22;21290;50.158;8.658;2024-03-22T11:12:33;23.10;92.90
35111;DHT22;21290;50.158;8.658;2024-03-22T11:15:02;23.20;91.60
35111;DHT22;21290;50.158;8.658;2024-03-22T11:17:34;21.70;92.50
35111;DHT22;21290;50.158;8.658;2024-03-22T11:20:00;20.70;94.10
35111;DHT22;21290;50.158;8.658;2024-03-22T11:22:25;20.00;95.40
35111;DHT22;21290;50.158;8.658;2024-03-22T11:24:55;19.70;96.10
35111;DHT22;21290;50.158;8.658;2024-03-22T11:27:20;19.40;96.90
35111;DHT22;21290;50.158;8.658;2024-03-22T11:29:47;19.20;97.00
35111;DHT22;21290;50.158;8.658;2024-03-22T11:32:16;19.00;97.70
35111;DHT22;21290;50.158;8.658;2024-03-22T11:34:42;18.80;97.90
35111;DHT22;21290;50.158;8.658;2024-03-22T11:37:08;18.60;98.40
35111;DHT22;21290;50.158;8.658;2024-03-22T11:39:36;18.50;98.80
35111;DHT22;21290;50.158;8.658;2024-03-22T11:42:05;18.40;99.20
35111;DHT22;21290;50.158;8.658;2024-03-22T11:44:35;18.50;99.20
35111;DHT22;21290;50.158;8.658;2024-03-22T11:47:02;18.30;99.70
35111;DHT22;21290;50.158;8.658;2024-03-22T11:49:29;18.20;99.90
35111;DHT22;21290;50.158;8.658;2024-03-22T11:52:07;17.90;99.90
35111;DHT22;21290;50.158;8.658;2024-03-22T11:54:33;17.80;99.90
35111;DHT22;21290;50.158;8.658;2024-03-22T11:56:59;17.60;99.90
35111;DHT22;21290;50.158;8.658;2024-03-22T11:59:29;17.50;99.90
35111;DHT22;21290;50.158;8.658;2024-03-22T12:01:55;17.60;99.90
35111;DHT22;21290;50.158;8.658;2024-03-22T12:04:22;17.70;99.90
35111;DHT22;21290;50.158;8.658;2024-03-22T12:06:48;17.90;99.90
35111;DHT22;21290;50.158;8.658;2024-03-22T12:09:15;17.90;99.90
35111;DHT22;21290;50.158;8.658;2024-03-22T12:11:50;18.00;99.90
35111;DHT22;21290;50.158;8.658;2024-03-22T12:14:16;18.20;99.90
35111;DHT22;21290;50.158;8.658;2024-03-22T12:16:42;18.40;99.90
35111;DHT22;21290;50.158;8.658;2024-03-22T12:19:08;18.30;99.90
35111;DHT22;21290;50.158;8.658;2024-03-22T12:21:45;18.20;99.90
35111;DHT22;21290;50.158;8.658;2024-03-22T12:24:12;18.20;99.90
35111;DHT22;21290;50.158;8.658;2024-03-22T12:26:38;18.10;99.90
35111;DHT22;21290;50.158;8.658;2024-03-22T12:29:03;18.10;99.90
35111;DHT22;21290;50.158;8.658;2024-03-22T12:31:42;18.10;99.90
35111;DHT22;21290;50.158;8.658;2024-03-22T12:34:12;18.00;99.90
35111;DHT22;21290;50.158;8.658;2024-03-22T12:36:41;18.10;99.90
35111;DHT22;21290;50.158;8.658;2024-03-22T12:39:07;18.20;99.90
35111;DHT22;21290;50.158;8.658;2024-03-22T12:41:33;18.40;99.70
35111;DHT22;21290;50.158;8.658;2024-03-22T12:44:01;18.50;99.60
35111;DHT22;21290;50.158;8.658;2024-03-22T12:46:27;18.50;99.50
35111;DHT22;21290;50.158;8.658;2024-03-22T12:48:55;18.50;99.30
35111;DHT22;21290;50.158;8.658;2024-03-22T12:51:22;18.40;99.60
35111;DHT22;21290;50.158;8.658;2024-03-22T12:53:50;18.30;99.80
35111;DHT22;21290;50.158;8.658;2024-03-22T12:56:16;18.10;99.90
35111;DHT22;21290;50.158;8.658;2024-03-22T12:58:42;17.90;99.90
35111;DHT22;21290;50.158;8.658;2024-03-22T13:01:09;17.80;99.90
35111;DHT22;21290;50.158;8.658;2024-03-22T13:03:38;17.90;99.90
35111;DHT22;21290;50.158;8.658;2024-03-22T13:06:04;18.00;99.90
35111;DHT22;21290;50.158;8.658;2024-03-22T13:08:34;17.90;99.90
35111;DHT22;21290;50.158;8.658;2024-03-22T13:11:00;17.90;99.90
35111;DHT22;21290;50.158;8.658;2024-03-22T13:13:26;17.80;99.90
35111;DHT22;21290;50.158;8.658;2024-03-22T13:15:52;17.70;99.90
35111;DHT22;21290;50.158;8.658;2024-03-22T13:18:18;17.70;99.90
35111;DHT22;21290;50.158;8.658;2024-03-22T13:20:46;17.70;99.90
35111;DHT22;21290;50.158;8.658;2024-03-22T13:23:12;17.70;99.90
35111;DHT22;21290;50.158;8.658;2024-03-22T13:25:39;17.70;99.90
35111;DHT22;21290;50.158;8.658;2024-03-22T13:28:04;17.70;99.90
35111;DHT22;21290;50.158;8.658;2024-03-22T13:30:33;17.70;99.90
35111;DHT22;21290;50.158;8.658;2024-03-22T13:33:01;17.70;99.90
35111;DHT22;21290;50.158;8.658;2024-03-22T13:35:27;17.80;99.90
35111;DHT22;21290;50.158;8.658;2024-03-22T13:37:53;17.80;99.90
35111;DHT22;21290;50.158;8.658;2024-03-22T13:40:19;17.90;99.90
35111;DHT22;21290;50.158;8.658;2024-03-22T13:42:45;17.80;99.90
35111;DHT22;21290;50.158;8.658;2024-03-22T13:45:11;17.80;99.90
35111;DHT22;21290;50.158;8.658;2024-03-22T13:47:37;17.60;99.90
35111;DHT22;21290;50.158;8.658;2024-03-22T13:50:07;17.50;99.90
35111;DHT22;21290;50.158;8.658;2024-03-22T13:52:34;17.40;99.90
35111;DHT22;21290;50.158;8.658;2024-03-22T13:55:04;17.40;99.90
35111;DHT22;21290;50.158;8.658;2024-03-22T13:57:31;17.30;99.90
35111;DHT22;21290;50.158;8.658;2024-03-22T13:59:58;17.20;99.90
35111;DHT22;21290;50.158;8.658;2024-03-22T14:02:24;17.10;99.90
35111;DHT22;21290;50.158;8.658;2024-03-22T14:04:50;17.00;99.90
35111;DHT22;21290;50.158;8.658;2024-03-22T14:07:16;17.00;99.90
35111;DHT22;21290;50.158;8.658;2024-03-22T14:09:42;17.10;99.90
35111;DHT22;21290;50.158;8.658;2024-03-22T14:12:09;17.10;99.90
35111;DHT22;21290;50.158;8.658;2024-03-22T14:14:35;17.10;99.90
35111;DHT22;21290;50.158;8.658;2024-03-22T14:17:01;17.00;99.90
35111;DHT22;21290;50.158;8.658;2024-03-22T14:19:27;17.00;99.90
35111;DHT22;21290;50.158;8.658;2024-03-22T14:21:53;17.00;99.90
35111;DHT22;21290;50.158;8.658;2024-03-22T14:24:18;16.90;99.90
35111;DHT22;21290;50.158;8.658;2024-03-22T14:26:44;16.90;99.90
35111;DHT22;21290;50.158;8.658;2024-03-22T14:29:11;16.90;99.90
35111;DHT22;21290;50.158;8.658;2024-03-22T14:31:37;16.80;99.90
35111;DHT22;21290;50.158;8.658;2024-03-22T14:34:06;16.90;99.90
35111;DHT22;21290;50.158;8.658;2024-03-22T14:36:34;16.80;99.90
35111;DHT22;21290;50.158;8.658;2024-03-22T14:39:00;16.80;99.90
35111;DHT22;21290;50.158;8.658;2024-03-22T14:41:25;16.80;99.90
35111;DHT22;21290;50.158;8.658;2024-03-22T14:43:51;16.70;99.90
35111;DHT22;21290;50.158;8.658;2024-03-22T14:46:17;16.70;99.90
35111;DHT22;21290;50.158;8.658;2024-03-22T14:48:45;16.80;99.90
35111;DHT22;21290;50.158;8.658;2024-03-22T14:51:11;16.80;99.90
35111;DHT22;21290;50.158;8.658;2024-03-22T14:53:37;16.80;99.90
35111;DHT22;21290;50.158;8.658;2024-03-22T14:56:04;16.90;99.90
35111;DHT22;21290;50.158;8.658;2024-03-22T14:58:30;16.90;99.90
35111;DHT22;21290;50.158;8.658;2024-03-22T15:00:59;16.90;99.90
35111;DHT22;21290;50.158;8.658;2024-03-22T15:03:25;16.80;99.90
35111;DHT22;21290;50.158;8.658;2024-03-22T15:05:52;16.80;99.90
35111;DHT22;21290;50.158;8.658;2024-03-22T15:08:20;16.90;99.90
35111;DHT22;21290;50.158;8.658;2024-03-22T15:10:46;17.00;99.90
35111;DHT22;21290;50.158;8.658;2024-03-22T15:13:14;17.00;99.90
35111;DHT22;21290;50.158;8.658;2024-03-22T15:15:40;17.00;99.90
35111;DHT22;21290;50.158;8.658;2024-03-22T15:18:07;16.90;99.90
35111;DHT22;21290;50.158;8.658;2024-03-22T15:20:33;17.00;99.90
35111;DHT22;21290;50.158;8.658;2024-03-22T15:23:00;17.00;99.90
35111;DHT22;21290;50.158;8.658;2024-03-22T15:25:27;17.10;99.90
35111;DHT22;21290;50.158;8.658;2024-03-22T15:27:53;17.00;99.90
35111;DHT22;21290;50.158;8.658;2024-03-22T15:30:19;17.10;99.90
35111;DHT22;21290;50.158;8.658;2024-03-22T15:32:45;17.00;99.90
35111;DHT22;21290;50.158;8.658;2024-03-22T15:35:11;17.00;99.90
35111;DHT22;21290;50.158;8.658;2024-03-22T15:37:40;16.90;99.90